Etusivu
METAR-TAF:

METAR-TAF

Lentoasemat :

Saint-Yan, Ranska

Leveyspiiri: 46-24-45N, Pituuspiiri: 004-00-48E, korkeus merenpinnasta: 244 m

Tämänhetkinen sää

Tämä raportti tehtiin 37 minuuttia sitten, kello 14.30 UTC
Tuuli 10 kn lännestä/luoteesta
Lämpötila 21°C
Kosteus 53%
Ilmanpaine 1017 hPa
Näkyvyys 10 km tai enemmän
ei pilviä alle 1500 m:ssä eikä cumulonimbus-pilviä

METAR: LFLN 021430Z AUTO 29010KT CAVOK 21/11 Q1017 NOSIG

Aika: 17:07 (15:07 UTC)

Sääennuste

Tämä raportti tehtiin 1 tunti ja 7 minuuttia sitten, kello 14.00 UTC
Ennuste voimassa 02. päivästä klo 15 UTC - 02. päivään klo 24 UTC
Tuuli 12 kn lännestä/luoteesta
Näkyvyys 10 km tai enemmän
Muutamia pilviä 5000 ft:n korkeudessa
Tulossa
02. päivästä klo 21 UTC - 02. päivään klo 23 UTC
Tuuli 4 kn etelästä/kaakosta

TAF: LFLN 021400Z 0215/0224 29012KT 9999 FEW050 BECMG 0221/0223 16004KT

Säähavainnot ja -ennusteet yli 4000 lentoasemalta (METAR- ja TAF-raportit).

Käytössä olevat sääasemat on merkitty karttaan keltaisilla ja punaisilla pisteillä.

Aseta hiiri pisteen päälle nähdäksesi sääaseman nimen.

Klikkaa sitten nähdäksesi säähavainnot ja -ennusteet.

Kartan vaihtaminen: klikkaa mustalla rastilla varustettuja vihreitä pisteitä, niin voit zoomata sisään; viivalla varustettua vihreää pistettä, niin voit zoomata ulos tai vihreitä nuolia, niin pääset viereisille kartoille.


METAR-TAF: